sensor_id;sensor_type;location;lat;lon;timestamp;P1;durP1;ratioP1;P2;durP2;ratioP2
14933;SDS011;7560;51.364;12.384;2023-05-10T00:00:03;5.07;;;4.00;;
14933;SDS011;7560;51.364;12.384;2023-05-10T00:05:07;6.28;;;4.22;;
14933;SDS011;7560;51.364;12.384;2023-05-10T00:10:10;5.50;;;3.80;;
14933;SDS011;7560;51.364;12.384;2023-05-10T00:15:13;4.88;;;4.10;;
14933;SDS011;7560;51.364;12.384;2023-05-10T00:20:15;5.80;;;3.97;;
14933;SDS011;7560;51.364;12.384;2023-05-10T00:25:20;5.68;;;3.92;;
14933;SDS011;7560;51.364;12.384;2023-05-10T00:30:24;5.20;;;3.72;;
14933;SDS011;7560;51.364;12.384;2023-05-10T00:35:26;6.32;;;3.90;;
14933;SDS011;7560;51.364;12.384;2023-05-10T00:40:28;6.05;;;4.00;;
14933;SDS011;7560;51.364;12.384;2023-05-10T00:45:32;8.02;;;4.32;;
14933;SDS011;7560;51.364;12.384;2023-05-10T00:50:36;7.25;;;3.72;;
14933;SDS011;7560;51.364;12.384;2023-05-10T00:55:38;4.72;;;3.95;;
14933;SDS011;7560;51.364;12.384;2023-05-10T01:00:41;4.38;;;3.63;;
14933;SDS011;7560;51.364;12.384;2023-05-10T01:05:47;4.25;;;3.80;;
14933;SDS011;7560;51.364;12.384;2023-05-10T01:10:51;5.65;;;3.63;;
14933;SDS011;7560;51.364;12.384;2023-05-10T01:15:54;6.40;;;4.25;;
14933;SDS011;7560;51.364;12.384;2023-05-10T01:26:56;5.10;;;3.88;;
14933;SDS011;7560;51.364;12.384;2023-05-10T01:43:19;6.50;;;3.88;;
14933;SDS011;7560;51.364;12.384;2023-05-10T01:48:29;6.10;;;4.47;;
14933;SDS011;7560;51.364;12.384;2023-05-10T01:53:33;5.55;;;4.10;;
14933;SDS011;7560;51.364;12.384;2023-05-10T01:58:39;7.32;;;3.92;;
14933;SDS011;7560;51.364;12.384;2023-05-10T02:03:43;5.47;;;4.10;;
14933;SDS011;7560;51.364;12.384;2023-05-10T02:08:46;7.03;;;4.07;;
14933;SDS011;7560;51.364;12.384;2023-05-10T02:13:50;6.68;;;4.03;;
14933;SDS011;7560;51.364;12.384;2023-05-10T02:18:54;6.38;;;4.05;;
14933;SDS011;7560;51.364;12.384;2023-05-10T02:23:58;5.80;;;4.35;;
14933;SDS011;7560;51.364;12.384;2023-05-10T02:29:04;5.03;;;3.83;;
14933;SDS011;7560;51.364;12.384;2023-05-10T02:34:07;5.95;;;3.92;;
14933;SDS011;7560;51.364;12.384;2023-05-10T02:39:11;5.15;;;4.20;;
14933;SDS011;7560;51.364;12.384;2023-05-10T02:44:17;5.43;;;4.03;;
14933;SDS011;7560;51.364;12.384;2023-05-10T02:49:20;5.68;;;4.03;;
14933;SDS011;7560;51.364;12.384;2023-05-10T02:54:24;5.57;;;4.10;;
14933;SDS011;7560;51.364;12.384;2023-05-10T02:59:31;6.60;;;4.18;;
14933;SDS011;7560;51.364;12.384;2023-05-10T03:04:34;8.05;;;4.88;;
14933;SDS011;7560;51.364;12.384;2023-05-10T03:09:36;8.10;;;4.13;;
14933;SDS011;7560;51.364;12.384;2023-05-10T03:15:22;6.80;;;4.03;;
14933;SDS011;7560;51.364;12.384;2023-05-10T03:26:08;5.03;;;4.20;;
14933;SDS011;7560;51.364;12.384;2023-05-10T03:31:11;6.68;;;4.28;;
14933;SDS011;7560;51.364;12.384;2023-05-10T03:36:14;10.18;;;5.50;;
14933;SDS011;7560;51.364;12.384;2023-05-10T03:41:16;7.95;;;4.78;;
14933;SDS011;7560;51.364;12.384;2023-05-10T03:46:18;6.95;;;4.50;;
14933;SDS011;7560;51.364;12.384;2023-05-10T03:51:20;9.88;;;4.88;;
14933;SDS011;7560;51.364;12.384;2023-05-10T03:56:23;9.52;;;4.20;;
14933;SDS011;7560;51.364;12.384;2023-05-10T04:01:25;7.05;;;4.43;;
14933;SDS011;7560;51.364;12.384;2023-05-10T04:06:29;5.32;;;4.07;;
14933;SDS011;7560;51.364;12.384;2023-05-10T04:11:31;5.18;;;4.45;;
14933;SDS011;7560;51.364;12.384;2023-05-10T04:16:34;5.38;;;4.30;;
14933;SDS011;7560;51.364;12.384;2023-05-10T04:21:37;5.30;;;4.45;;
14933;SDS011;7560;51.364;12.384;2023-05-10T04:26:39;7.55;;;4.25;;
14933;SDS011;7560;51.364;12.384;2023-05-10T04:31:41;5.32;;;3.90;;
14933;SDS011;7560;51.364;12.384;2023-05-10T04:36:43;7.05;;;4.40;;
14933;SDS011;7560;51.364;12.384;2023-05-10T04:41:44;5.00;;;3.75;;
14933;SDS011;7560;51.364;12.384;2023-05-10T04:46:46;7.45;;;4.22;;
14933;SDS011;7560;51.364;12.384;2023-05-10T04:51:48;6.15;;;3.90;;
14933;SDS011;7560;51.364;12.384;2023-05-10T04:56:50;5.63;;;3.80;;
14933;SDS011;7560;51.364;12.384;2023-05-10T05:01:52;5.88;;;4.43;;
14933;SDS011;7560;51.364;12.384;2023-05-10T05:06:54;5.40;;;3.85;;
14933;SDS011;7560;51.364;12.384;2023-05-10T05:11:57;5.63;;;4.28;;
14933;SDS011;7560;51.364;12.384;2023-05-10T05:16:59;6.25;;;3.75;;
14933;SDS011;7560;51.364;12.384;2023-05-10T05:22:01;6.90;;;3.92;;
14933;SDS011;7560;51.364;12.384;2023-05-10T05:27:04;5.63;;;4.05;;
14933;SDS011;7560;51.364;12.384;2023-05-10T05:32:07;9.50;;;4.97;;
14933;SDS011;7560;51.364;12.384;2023-05-10T05:37:12;5.15;;;3.75;;
14933;SDS011;7560;51.364;12.384;2023-05-10T05:42:15;5.38;;;3.83;;
14933;SDS011;7560;51.364;12.384;2023-05-10T05:47:21;5.10;;;4.20;;
14933;SDS011;7560;51.364;12.384;2023-05-10T05:52:25;5.72;;;4.15;;
14933;SDS011;7560;51.364;12.384;2023-05-10T05:57:26;5.43;;;3.90;;
14933;SDS011;7560;51.364;12.384;2023-05-10T06:02:30;6.13;;;3.97;;
14933;SDS011;7560;51.364;12.384;2023-05-10T06:07:32;5.88;;;3.97;;
14933;SDS011;7560;51.364;12.384;2023-05-10T06:12:38;5.88;;;4.10;;
14933;SDS011;7560;51.364;12.384;2023-05-10T06:17:41;5.20;;;4.28;;
14933;SDS011;7560;51.364;12.384;2023-05-10T06:22:44;5.22;;;4.00;;
14933;SDS011;7560;51.364;12.384;2023-05-10T06:27:46;6.32;;;4.00;;
14933;SDS011;7560;51.364;12.384;2023-05-10T06:32:53;7.47;;;3.90;;
14933;SDS011;7560;51.364;12.384;2023-05-10T06:37:56;5.15;;;4.20;;
14933;SDS011;7560;51.364;12.384;2023-05-10T06:42:58;5.68;;;3.90;;
14933;SDS011;7560;51.364;12.384;2023-05-10T06:48:00;6.20;;;4.82;;
14933;SDS011;7560;51.364;12.384;2023-05-10T06:53:02;8.35;;;4.32;;
14933;SDS011;7560;51.364;12.384;2023-05-10T06:58:05;5.00;;;3.42;;
14933;SDS011;7560;51.364;12.384;2023-05-10T07:03:08;4.35;;;3.80;;
14933;SDS011;7560;51.364;12.384;2023-05-10T07:08:11;7.28;;;4.75;;
14933;SDS011;7560;51.364;12.384;2023-05-10T07:13:14;6.38;;;4.90;;
14933;SDS011;7560;51.364;12.384;2023-05-10T07:18:20;8.52;;;4.30;;
14933;SDS011;7560;51.364;12.384;2023-05-10T07:23:22;6.07;;;3.75;;
14933;SDS011;7560;51.364;12.384;2023-05-10T07:28:24;7.55;;;5.35;;
14933;SDS011;7560;51.364;12.384;2023-05-10T07:33:26;7.10;;;3.67;;
14933;SDS011;7560;51.364;12.384;2023-05-10T07:38:28;6.82;;;3.83;;
14933;SDS011;7560;51.364;12.384;2023-05-10T07:43:33;5.05;;;3.45;;
14933;SDS011;7560;51.364;12.384;2023-05-10T07:48:36;6.43;;;3.60;;
14933;SDS011;7560;51.364;12.384;2023-05-10T07:53:38;4.88;;;4.18;;
14933;SDS011;7560;51.364;12.384;2023-05-10T07:58:40;4.75;;;3.92;;
14933;SDS011;7560;51.364;12.384;2023-05-10T08:03:42;8.23;;;4.07;;
14933;SDS011;7560;51.364;12.384;2023-05-10T08:08:45;4.63;;;3.72;;
14933;SDS011;7560;51.364;12.384;2023-05-10T08:13:50;5.50;;;3.78;;
14933;SDS011;7560;51.364;12.384;2023-05-10T08:18:54;6.47;;;3.90;;
14933;SDS011;7560;51.364;12.384;2023-05-10T08:23:56;7.80;;;4.45;;
14933;SDS011;7560;51.364;12.384;2023-05-10T08:28:58;5.25;;;3.70;;
14933;SDS011;7560;51.364;12.384;2023-05-10T08:34:00;8.35;;;4.32;;
14933;SDS011;7560;51.364;12.384;2023-05-10T08:39:03;5.57;;;3.58;;
14933;SDS011;7560;51.364;12.384;2023-05-10T08:44:19;7.07;;;3.72;;
14933;SDS011;7560;51.364;12.384;2023-05-10T08:49:21;4.43;;;3.83;;
14933;SDS011;7560;51.364;12.384;2023-05-10T08:54:25;7.00;;;4.00;;
14933;SDS011;7560;51.364;12.384;2023-05-10T08:59:27;6.18;;;4.07;;
14933;SDS011;7560;51.364;12.384;2023-05-10T09:04:30;7.05;;;4.38;;
14933;SDS011;7560;51.364;12.384;2023-05-10T09:09:32;6.65;;;4.80;;
14933;SDS011;7560;51.364;12.384;2023-05-10T09:14:36;7.45;;;4.60;;
14933;SDS011;7560;51.364;12.384;2023-05-10T09:19:40;8.52;;;4.60;;
14933;SDS011;7560;51.364;12.384;2023-05-10T09:24:42;7.10;;;5.43;;
14933;SDS011;7560;51.364;12.384;2023-05-10T09:29:46;6.28;;;5.05;;
14933;SDS011;7560;51.364;12.384;2023-05-10T09:34:48;6.32;;;5.70;;
14933;SDS011;7560;51.364;12.384;2023-05-10T09:39:51;11.52;;;5.68;;
14933;SDS011;7560;51.364;12.384;2023-05-10T09:45:00;7.72;;;5.70;;
14933;SDS011;7560;51.364;12.384;2023-05-10T09:50:05;8.65;;;6.10;;
14933;SDS011;7560;51.364;12.384;2023-05-10T09:55:07;8.88;;;6.68;;
14933;SDS011;7560;51.364;12.384;2023-05-10T10:00:10;10.50;;;6.15;;
14933;SDS011;7560;51.364;12.384;2023-05-10T10:05:19;8.70;;;5.95;;
14933;SDS011;7560;51.364;12.384;2023-05-10T10:10:21;6.85;;;5.68;;
14933;SDS011;7560;51.364;12.384;2023-05-10T10:15:23;8.82;;;6.13;;
14933;SDS011;7560;51.364;12.384;2023-05-10T10:20:26;12.75;;;7.00;;
14933;SDS011;7560;51.364;12.384;2023-05-10T10:25:29;9.25;;;6.22;;
14933;SDS011;7560;51.364;12.384;2023-05-10T10:35:44;10.75;;;6.72;;
14933;SDS011;7560;51.364;12.384;2023-05-10T10:40:47;7.45;;;6.25;;
14933;SDS011;7560;51.364;12.384;2023-05-10T10:51:19;10.43;;;6.43;;
14933;SDS011;7560;51.364;12.384;2023-05-10T10:56:21;8.75;;;6.80;;
14933;SDS011;7560;51.364;12.384;2023-05-10T11:01:24;9.57;;;7.05;;
14933;SDS011;7560;51.364;12.384;2023-05-10T11:06:36;10.52;;;7.90;;
14933;SDS011;7560;51.364;12.384;2023-05-10T11:11:52;9.18;;;7.00;;
14933;SDS011;7560;51.364;12.384;2023-05-10T11:16:59;8.10;;;6.40;;
14933;SDS011;7560;51.364;12.384;2023-05-10T11:27:05;9.95;;;6.75;;
14933;SDS011;7560;51.364;12.384;2023-05-10T11:32:09;9.05;;;7.25;;
14933;SDS011;7560;51.364;12.384;2023-05-10T11:37:14;8.57;;;6.82;;
14933;SDS011;7560;51.364;12.384;2023-05-10T11:42:15;9.98;;;7.60;;
14933;SDS011;7560;51.364;12.384;2023-05-10T11:47:18;8.65;;;6.38;;
14933;SDS011;7560;51.364;12.384;2023-05-10T11:52:20;8.30;;;6.95;;
14933;SDS011;7560;51.364;12.384;2023-05-10T11:57:26;10.50;;;7.28;;
14933;SDS011;7560;51.364;12.384;2023-05-10T12:02:29;8.82;;;7.18;;
14933;SDS011;7560;51.364;12.384;2023-05-10T12:07:33;10.25;;;7.03;;
14933;SDS011;7560;51.364;12.384;2023-05-10T12:12:36;8.40;;;6.95;;
14933;SDS011;7560;51.364;12.384;2023-05-10T12:17:45;8.98;;;7.18;;
14933;SDS011;7560;51.364;12.384;2023-05-10T12:22:52;8.85;;;6.90;;
14933;SDS011;7560;51.364;12.384;2023-05-10T12:27:56;8.95;;;7.38;;
14933;SDS011;7560;51.364;12.384;2023-05-10T12:33:03;9.68;;;7.43;;
14933;SDS011;7560;51.364;12.384;2023-05-10T12:38:25;8.85;;;6.72;;
14933;SDS011;7560;51.364;12.384;2023-05-10T12:43:35;9.07;;;7.40;;
14933;SDS011;7560;51.364;12.384;2023-05-10T12:48:38;7.32;;;6.60;;
14933;SDS011;7560;51.364;12.384;2023-05-10T12:53:40;8.27;;;6.97;;
14933;SDS011;7560;51.364;12.384;2023-05-10T12:58:46;8.68;;;6.97;;
14933;SDS011;7560;51.364;12.384;2023-05-10T13:03:50;10.10;;;6.88;;
14933;SDS011;7560;51.364;12.384;2023-05-10T13:08:53;7.75;;;6.60;;
14933;SDS011;7560;51.364;12.384;2023-05-10T13:13:55;8.05;;;6.82;;
14933;SDS011;7560;51.364;12.384;2023-05-10T13:18:57;9.80;;;7.22;;
14933;SDS011;7560;51.364;12.384;2023-05-10T13:23:59;7.65;;;6.85;;
14933;SDS011;7560;51.364;12.384;2023-05-10T13:29:02;9.20;;;6.95;;
14933;SDS011;7560;51.364;12.384;2023-05-10T13:34:05;7.30;;;6.03;;
14933;SDS011;7560;51.364;12.384;2023-05-10T13:39:07;7.18;;;6.15;;
14933;SDS011;7560;51.364;12.384;2023-05-10T13:44:11;15.13;;;5.80;;
14933;SDS011;7560;51.364;12.384;2023-05-10T13:49:13;6.93;;;5.50;;
14933;SDS011;7560;51.364;12.384;2023-05-10T13:54:17;6.05;;;5.25;;
14933;SDS011;7560;51.364;12.384;2023-05-10T13:59:20;5.90;;;5.30;;
14933;SDS011;7560;51.364;12.384;2023-05-10T14:04:22;5.93;;;4.90;;
14933;SDS011;7560;51.364;12.384;2023-05-10T14:09:24;6.00;;;4.50;;
14933;SDS011;7560;51.364;12.384;2023-05-10T14:14:26;6.75;;;4.85;;
14933;SDS011;7560;51.364;12.384;2023-05-10T14:19:30;6.03;;;5.20;;
14933;SDS011;7560;51.364;12.384;2023-05-10T14:24:34;5.50;;;5.00;;
14933;SDS011;7560;51.364;12.384;2023-05-10T14:29:36;5.93;;;4.85;;
14933;SDS011;7560;51.364;12.384;2023-05-10T14:34:37;5.53;;;4.70;;
14933;SDS011;7560;51.364;12.384;2023-05-10T14:39:39;4.45;;;3.47;;
14933;SDS011;7560;51.364;12.384;2023-05-10T14:44:41;5.20;;;4.43;;
14933;SDS011;7560;51.364;12.384;2023-05-10T14:49:44;3.35;;;2.80;;
14933;SDS011;7560;51.364;12.384;2023-05-10T14:54:46;6.07;;;3.95;;
14933;SDS011;7560;51.364;12.384;2023-05-10T14:59:48;4.45;;;3.53;;
14933;SDS011;7560;51.364;12.384;2023-05-10T15:04:51;4.35;;;3.75;;
14933;SDS011;7560;51.364;12.384;2023-05-10T15:09:54;5.25;;;4.63;;
14933;SDS011;7560;51.364;12.384;2023-05-10T15:14:56;6.30;;;3.95;;
14933;SDS011;7560;51.364;12.384;2023-05-10T15:19:58;3.13;;;2.83;;
14933;SDS011;7560;51.364;12.384;2023-05-10T15:25:01;2.00;;;1.67;;
14933;SDS011;7560;51.364;12.384;2023-05-10T15:30:04;1.67;;;1.48;;
14933;SDS011;7560;51.364;12.384;2023-05-10T15:35:07;3.38;;;2.17;;
14933;SDS011;7560;51.364;12.384;2023-05-10T15:40:10;1.92;;;1.30;;
14933;SDS011;7560;51.364;12.384;2023-05-10T15:45:12;1.30;;;1.20;;
14933;SDS011;7560;51.364;12.384;2023-05-10T15:50:17;3.28;;;1.40;;
14933;SDS011;7560;51.364;12.384;2023-05-10T15:55:19;1.83;;;1.35;;
14933;SDS011;7560;51.364;12.384;2023-05-10T16:00:22;1.40;;;1.30;;
14933;SDS011;7560;51.364;12.384;2023-05-10T16:05:24;1.77;;;1.50;;
14933;SDS011;7560;51.364;12.384;2023-05-10T16:10:31;2.45;;;1.88;;
14933;SDS011;7560;51.364;12.384;2023-05-10T16:15:34;3.35;;;2.10;;
14933;SDS011;7560;51.364;12.384;2023-05-10T16:20:37;3.58;;;2.78;;
14933;SDS011;7560;51.364;12.384;2023-05-10T16:25:39;2.03;;;1.75;;
14933;SDS011;7560;51.364;12.384;2023-05-10T16:30:46;1.73;;;1.60;;
14933;SDS011;7560;51.364;12.384;2023-05-10T16:35:49;3.03;;;2.28;;
14933;SDS011;7560;51.364;12.384;2023-05-10T16:40:55;2.90;;;1.70;;
14933;SDS011;7560;51.364;12.384;2023-05-10T16:45:57;4.07;;;1.58;;
14933;SDS011;7560;51.364;12.384;2023-05-10T16:51:01;2.88;;;1.70;;
14933;SDS011;7560;51.364;12.384;2023-05-10T16:56:03;3.08;;;1.70;;
14933;SDS011;7560;51.364;12.384;2023-05-10T17:01:05;1.88;;;1.52;;
14933;SDS011;7560;51.364;12.384;2023-05-10T17:06:07;3.63;;;2.85;;
14933;SDS011;7560;51.364;12.384;2023-05-10T17:11:09;2.90;;;2.40;;
14933;SDS011;7560;51.364;12.384;2023-05-10T17:16:11;2.28;;;2.08;;
14933;SDS011;7560;51.364;12.384;2023-05-10T17:21:13;2.63;;;2.10;;
14933;SDS011;7560;51.364;12.384;2023-05-10T17:26:15;3.47;;;2.00;;
14933;SDS011;7560;51.364;12.384;2023-05-10T17:31:18;2.45;;;2.25;;
14933;SDS011;7560;51.364;12.384;2023-05-10T17:36:20;2.95;;;2.65;;
14933;SDS011;7560;51.364;12.384;2023-05-10T17:41:22;3.00;;;2.70;;
14933;SDS011;7560;51.364;12.384;2023-05-10T17:46:24;3.28;;;2.88;;
14933;SDS011;7560;51.364;12.384;2023-05-10T17:51:26;3.17;;;2.88;;
14933;SDS011;7560;51.364;12.384;2023-05-10T17:56:29;4.13;;;3.22;;
14933;SDS011;7560;51.364;12.384;2023-05-10T18:01:30;3.33;;;3.03;;
14933;SDS011;7560;51.364;12.384;2023-05-10T18:06:36;3.47;;;3.17;;
14933;SDS011;7560;51.364;12.384;2023-05-10T18:11:40;2.95;;;2.67;;
14933;SDS011;7560;51.364;12.384;2023-05-10T18:16:42;4.18;;;2.97;;
14933;SDS011;7560;51.364;12.384;2023-05-10T18:21:51;2.92;;;2.72;;
14933;SDS011;7560;51.364;12.384;2023-05-10T18:26:53;3.10;;;2.80;;
14933;SDS011;7560;51.364;12.384;2023-05-10T18:31:56;4.72;;;3.38;;
14933;SDS011;7560;51.364;12.384;2023-05-10T18:36:58;4.10;;;3.70;;
14933;SDS011;7560;51.364;12.384;2023-05-10T18:42:01;4.43;;;3.30;;
14933;SDS011;7560;51.364;12.384;2023-05-10T18:47:04;3.95;;;3.55;;
14933;SDS011;7560;51.364;12.384;2023-05-10T18:52:06;3.88;;;3.13;;
14933;SDS011;7560;51.364;12.384;2023-05-10T18:57:08;3.85;;;3.35;;
14933;SDS011;7560;51.364;12.384;2023-05-10T19:02:10;4.85;;;3.72;;
14933;SDS011;7560;51.364;12.384;2023-05-10T19:07:13;5.18;;;3.78;;
14933;SDS011;7560;51.364;12.384;2023-05-10T19:12:15;3.55;;;3.25;;
14933;SDS011;7560;51.364;12.384;2023-05-10T19:17:17;4.80;;;3.42;;
14933;SDS011;7560;51.364;12.384;2023-05-10T19:22:19;9.32;;;7.50;;
14933;SDS011;7560;51.364;12.384;2023-05-10T19:27:41;5.90;;;4.65;;
14933;SDS011;7560;51.364;12.384;2023-05-10T19:32:43;5.90;;;4.63;;
14933;SDS011;7560;51.364;12.384;2023-05-10T19:37:45;5.32;;;4.55;;
14933;SDS011;7560;51.364;12.384;2023-05-10T19:42:47;5.70;;;4.68;;
14933;SDS011;7560;51.364;12.384;2023-05-10T19:47:49;4.70;;;4.15;;
14933;SDS011;7560;51.364;12.384;2023-05-10T19:52:58;4.68;;;4.18;;
14933;SDS011;7560;51.364;12.384;2023-05-10T20:03:06;6.82;;;5.47;;
14933;SDS011;7560;51.364;12.384;2023-05-10T20:08:12;5.53;;;5.03;;
14933;SDS011;7560;51.364;12.384;2023-05-10T20:13:14;8.77;;;6.90;;
14933;SDS011;7560;51.364;12.384;2023-05-10T20:18:16;6.65;;;5.82;;
14933;SDS011;7560;51.364;12.384;2023-05-10T20:23:18;6.45;;;5.18;;
14933;SDS011;7560;51.364;12.384;2023-05-10T20:28:23;5.45;;;4.60;;
14933;SDS011;7560;51.364;12.384;2023-05-10T20:33:26;5.53;;;4.95;;
14933;SDS011;7560;51.364;12.384;2023-05-10T20:38:28;5.90;;;5.25;;
14933;SDS011;7560;51.364;12.384;2023-05-10T20:43:30;7.57;;;5.40;;
14933;SDS011;7560;51.364;12.384;2023-05-10T20:48:32;7.18;;;5.40;;
14933;SDS011;7560;51.364;12.384;2023-05-10T20:53:34;6.15;;;5.50;;
14933;SDS011;7560;51.364;12.384;2023-05-10T20:58:36;5.97;;;5.30;;
14933;SDS011;7560;51.364;12.384;2023-05-10T21:03:38;7.47;;;5.57;;
14933;SDS011;7560;51.364;12.384;2023-05-10T21:08:40;5.80;;;5.20;;
14933;SDS011;7560;51.364;12.384;2023-05-10T21:13:41;7.43;;;5.80;;
14933;SDS011;7560;51.364;12.384;2023-05-10T21:18:44;6.68;;;5.35;;
14933;SDS011;7560;51.364;12.384;2023-05-10T21:23:47;6.28;;;5.32;;
14933;SDS011;7560;51.364;12.384;2023-05-10T21:28:49;6.60;;;5.68;;
14933;SDS011;7560;51.364;12.384;2023-05-10T21:33:50;7.28;;;5.93;;
14933;SDS011;7560;51.364;12.384;2023-05-10T21:38:54;6.40;;;5.80;;
14933;SDS011;7560;51.364;12.384;2023-05-10T21:43:56;6.25;;;5.55;;
14933;SDS011;7560;51.364;12.384;2023-05-10T21:49:00;9.02;;;6.15;;
14933;SDS011;7560;51.364;12.384;2023-05-10T21:54:02;7.20;;;5.82;;
14933;SDS011;7560;51.364;12.384;2023-05-10T21:59:04;7.65;;;6.63;;
14933;SDS011;7560;51.364;12.384;2023-05-10T22:04:07;7.97;;;6.97;;
14933;SDS011;7560;51.364;12.384;2023-05-10T22:09:09;8.70;;;6.28;;
14933;SDS011;7560;51.364;12.384;2023-05-10T22:14:11;8.50;;;6.70;;
14933;SDS011;7560;51.364;12.384;2023-05-10T22:19:20;9.68;;;7.28;;
14933;SDS011;7560;51.364;12.384;2023-05-10T22:24:22;10.27;;;7.40;;
14933;SDS011;7560;51.364;12.384;2023-05-10T22:29:25;9.32;;;6.95;;
14933;SDS011;7560;51.364;12.384;2023-05-10T22:34:27;8.07;;;6.45;;
14933;SDS011;7560;51.364;12.384;2023-05-10T22:39:30;8.38;;;6.78;;
14933;SDS011;7560;51.364;12.384;2023-05-10T22:44:32;8.27;;;6.43;;
14933;SDS011;7560;51.364;12.384;2023-05-10T22:49:34;8.23;;;6.55;;
14933;SDS011;7560;51.364;12.384;2023-05-10T22:54:37;8.75;;;6.88;;
14933;SDS011;7560;51.364;12.384;2023-05-10T22:59:39;8.55;;;6.80;;
14933;SDS011;7560;51.364;12.384;2023-05-10T23:04:44;9.40;;;6.75;;
14933;SDS011;7560;51.364;12.384;2023-05-10T23:09:45;6.63;;;5.78;;
14933;SDS011;7560;51.364;12.384;2023-05-10T23:14:48;7.95;;;6.55;;
14933;SDS011;7560;51.364;12.384;2023-05-10T23:19:50;10.57;;;6.80;;
14933;SDS011;7560;51.364;12.384;2023-05-10T23:24:53;7.88;;;6.30;;
14933;SDS011;7560;51.364;12.384;2023-05-10T23:29:56;8.20;;;6.55;;
14933;SDS011;7560;51.364;12.384;2023-05-10T23:34:58;7.38;;;6.47;;
14933;SDS011;7560;51.364;12.384;2023-05-10T23:40:00;9.82;;;6.65;;
14933;SDS011;7560;51.364;12.384;2023-05-10T23:45:02;9.30;;;6.78;;
14933;SDS011;7560;51.364;12.384;2023-05-10T23:50:05;9.40;;;7.10;;
14933;SDS011;7560;51.364;12.384;2023-05-10T23:55:08;9.05;;;7.13;;
